sensor_id;sensor_type;location;lat;lon;timestamp;temperature;humidity
22416;DHT22;12204;50.600;4.608;2023-04-05T00:01:36;18.20;68.00
22416;DHT22;12204;50.600;4.608;2023-04-05T00:06:40;18.20;68.10
22416;DHT22;12204;50.600;4.608;2023-04-05T00:11:46;18.20;68.00
22416;DHT22;12204;50.600;4.608;2023-04-05T00:16:50;18.20;68.00
22416;DHT22;12204;50.600;4.608;2023-04-05T00:21:53;18.20;68.10
22416;DHT22;12204;50.600;4.608;2023-04-05T00:26:58;18.20;68.10
22416;DHT22;12204;50.600;4.608;2023-04-05T00:32:03;18.20;68.20
22416;DHT22;12204;50.600;4.608;2023-04-05T00:37:07;18.20;68.20
22416;DHT22;12204;50.600;4.608;2023-04-05T00:42:11;18.20;68.20
22416;DHT22;12204;50.600;4.608;2023-04-05T00:47:16;18.20;68.20
22416;DHT22;12204;50.600;4.608;2023-04-05T00:52:20;18.20;68.30
22416;DHT22;12204;50.600;4.608;2023-04-05T00:57:25;18.20;68.20
22416;DHT22;12204;50.600;4.608;2023-04-05T01:02:32;18.20;68.20
22416;DHT22;12204;50.600;4.608;2023-04-05T01:07:45;18.20;68.30
22416;DHT22;12204;50.600;4.608;2023-04-05T01:12:55;18.20;68.40
22416;DHT22;12204;50.600;4.608;2023-04-05T01:17:59;18.20;68.30
22416;DHT22;12204;50.600;4.608;2023-04-05T01:23:25;18.20;68.30
22416;DHT22;12204;50.600;4.608;2023-04-05T01:28:58;18.20;68.40
22416;DHT22;12204;50.600;4.608;2023-04-05T01:34:48;18.20;68.30
22416;DHT22;12204;50.600;4.608;2023-04-05T01:40:50;18.10;68.30
22416;DHT22;12204;50.600;4.608;2023-04-05T01:45:56;18.10;68.30
22416;DHT22;12204;50.600;4.608;2023-04-05T01:50:59;18.10;68.30
22416;DHT22;12204;50.600;4.608;2023-04-05T01:56:03;18.20;68.40
22416;DHT22;12204;50.600;4.608;2023-04-05T02:01:11;18.20;68.40
22416;DHT22;12204;50.600;4.608;2023-04-05T02:06:15;18.10;68.40
22416;DHT22;12204;50.600;4.608;2023-04-05T02:11:18;18.10;68.40
22416;DHT22;12204;50.600;4.608;2023-04-05T02:16:23;18.10;68.40
22416;DHT22;12204;50.600;4.608;2023-04-05T02:21:28;18.10;68.40
22416;DHT22;12204;50.600;4.608;2023-04-05T02:26:32;18.10;68.50
22416;DHT22;12204;50.600;4.608;2023-04-05T02:31:37;18.10;68.50
22416;DHT22;12204;50.600;4.608;2023-04-05T02:36:40;18.10;68.40
22416;DHT22;12204;50.600;4.608;2023-04-05T02:41:45;18.10;68.50
22416;DHT22;12204;50.600;4.608;2023-04-05T02:46:50;18.10;68.50
22416;DHT22;12204;50.600;4.608;2023-04-05T02:51:59;18.10;68.50
22416;DHT22;12204;50.600;4.608;2023-04-05T02:57:03;18.10;68.50
22416;DHT22;12204;50.600;4.608;2023-04-05T03:02:18;18.10;68.60
22416;DHT22;12204;50.600;4.608;2023-04-05T03:07:24;18.10;68.50
22416;DHT22;12204;50.600;4.608;2023-04-05T03:12:28;18.10;68.50
22416;DHT22;12204;50.600;4.608;2023-04-05T03:17:34;18.10;68.50
22416;DHT22;12204;50.600;4.608;2023-04-05T03:22:38;18.10;68.60
22416;DHT22;12204;50.600;4.608;2023-04-05T03:27:44;18.10;68.60
22416;DHT22;12204;50.600;4.608;2023-04-05T03:32:52;18.10;68.60
22416;DHT22;12204;50.600;4.608;2023-04-05T03:38:12;18.00;68.50
22416;DHT22;12204;50.600;4.608;2023-04-05T03:43:24;18.10;68.60
22416;DHT22;12204;50.600;4.608;2023-04-05T03:48:29;18.10;68.60
22416;DHT22;12204;50.600;4.608;2023-04-05T03:53:33;18.10;68.60
22416;DHT22;12204;50.600;4.608;2023-04-05T03:58:37;18.10;68.60
22416;DHT22;12204;50.600;4.608;2023-04-05T04:03:42;18.10;68.60
22416;DHT22;12204;50.600;4.608;2023-04-05T04:08:46;18.10;68.60
22416;DHT22;12204;50.600;4.608;2023-04-05T04:13:49;18.10;68.60
22416;DHT22;12204;50.600;4.608;2023-04-05T04:19:18;18.10;68.60
22416;DHT22;12204;50.600;4.608;2023-04-05T04:24:39;18.00;68.60
22416;DHT22;12204;50.600;4.608;2023-04-05T04:30:08;18.10;68.60
22416;DHT22;12204;50.600;4.608;2023-04-05T04:35:26;18.00;68.60
22416;DHT22;12204;50.600;4.608;2023-04-05T04:40:37;18.00;68.60
22416;DHT22;12204;50.600;4.608;2023-04-05T04:46:01;18.00;68.60
22416;DHT22;12204;50.600;4.608;2023-04-05T04:51:14;18.00;68.60
22416;DHT22;12204;50.600;4.608;2023-04-05T04:56:17;18.00;68.60
22416;DHT22;12204;50.600;4.608;2023-04-05T05:01:23;18.00;68.70
22416;DHT22;12204;50.600;4.608;2023-04-05T05:06:28;18.00;68.60
22416;DHT22;12204;50.600;4.608;2023-04-05T05:11:32;18.00;68.60
22416;DHT22;12204;50.600;4.608;2023-04-05T05:16:36;18.00;68.60
22416;DHT22;12204;50.600;4.608;2023-04-05T05:21:40;18.00;68.70
22416;DHT22;12204;50.600;4.608;2023-04-05T05:26:44;18.00;68.80
22416;DHT22;12204;50.600;4.608;2023-04-05T05:31:47;18.00;68.70
22416;DHT22;12204;50.600;4.608;2023-04-05T05:36:54;18.00;68.80
22416;DHT22;12204;50.600;4.608;2023-04-05T05:41:57;18.00;68.80
22416;DHT22;12204;50.600;4.608;2023-04-05T05:47:00;18.00;68.80
22416;DHT22;12204;50.600;4.608;2023-04-05T05:52:06;18.00;68.80
22416;DHT22;12204;50.600;4.608;2023-04-05T05:57:09;18.00;68.70
22416;DHT22;12204;50.600;4.608;2023-04-05T06:02:12;18.00;68.70
22416;DHT22;12204;50.600;4.608;2023-04-05T06:07:17;18.00;68.70
22416;DHT22;12204;50.600;4.608;2023-04-05T06:12:22;18.00;68.70
22416;DHT22;12204;50.600;4.608;2023-04-05T06:17:28;18.00;68.80
22416;DHT22;12204;50.600;4.608;2023-04-05T06:22:33;17.90;68.70
22416;DHT22;12204;50.600;4.608;2023-04-05T06:27:37;17.90;68.70
22416;DHT22;12204;50.600;4.608;2023-04-05T06:32:40;18.00;68.60
22416;DHT22;12204;50.600;4.608;2023-04-05T06:37:45;17.90;68.60
22416;DHT22;12204;50.600;4.608;2023-04-05T06:42:49;18.00;68.60
22416;DHT22;12204;50.600;4.608;2023-04-05T06:47:57;17.90;68.60
22416;DHT22;12204;50.600;4.608;2023-04-05T06:53:01;17.90;68.60
22416;DHT22;12204;50.600;4.608;2023-04-05T06:58:05;17.90;68.60
22416;DHT22;12204;50.600;4.608;2023-04-05T07:03:09;17.90;68.60
22416;DHT22;12204;50.600;4.608;2023-04-05T07:08:13;17.90;68.60
22416;DHT22;12204;50.600;4.608;2023-04-05T07:13:18;17.90;68.50
22416;DHT22;12204;50.600;4.608;2023-04-05T07:18:23;17.90;68.50
22416;DHT22;12204;50.600;4.608;2023-04-05T07:23:28;17.90;68.50
22416;DHT22;12204;50.600;4.608;2023-04-05T07:28:32;17.90;68.50
22416;DHT22;12204;50.600;4.608;2023-04-05T07:33:37;17.90;68.50
22416;DHT22;12204;50.600;4.608;2023-04-05T07:38:42;17.90;68.50
22416;DHT22;12204;50.600;4.608;2023-04-05T07:43:45;17.90;68.40
22416;DHT22;12204;50.600;4.608;2023-04-05T07:48:49;17.90;68.50
22416;DHT22;12204;50.600;4.608;2023-04-05T07:53:53;17.90;68.50
22416;DHT22;12204;50.600;4.608;2023-04-05T07:58:57;17.90;68.40
22416;DHT22;12204;50.600;4.608;2023-04-05T08:04:01;17.90;68.50
22416;DHT22;12204;50.600;4.608;2023-04-05T08:09:06;17.90;68.40
22416;DHT22;12204;50.600;4.608;2023-04-05T08:14:09;17.90;68.50
22416;DHT22;12204;50.600;4.608;2023-04-05T08:19:13;17.90;68.50
22416;DHT22;12204;50.600;4.608;2023-04-05T08:24:18;17.90;68.40
22416;DHT22;12204;50.600;4.608;2023-04-05T08:29:21;17.90;68.50
22416;DHT22;12204;50.600;4.608;2023-04-05T08:34:25;17.90;68.50
22416;DHT22;12204;50.600;4.608;2023-04-05T08:39:30;17.90;69.30
22416;DHT22;12204;50.600;4.608;2023-04-05T08:44:36;17.90;68.40
22416;DHT22;12204;50.600;4.608;2023-04-05T08:49:42;17.90;68.50
22416;DHT22;12204;50.600;4.608;2023-04-05T08:54:46;18.00;68.60
22416;DHT22;12204;50.600;4.608;2023-04-05T08:59:52;17.90;68.50
22416;DHT22;12204;50.600;4.608;2023-04-05T09:04:57;18.00;68.60
22416;DHT22;12204;50.600;4.608;2023-04-05T09:10:05;17.90;68.50
22416;DHT22;12204;50.600;4.608;2023-04-05T09:15:09;17.90;68.50
22416;DHT22;12204;50.600;4.608;2023-04-05T09:20:13;17.90;68.70
22416;DHT22;12204;50.600;4.608;2023-04-05T09:25:33;18.00;68.70
22416;DHT22;12204;50.600;4.608;2023-04-05T09:30:44;18.00;68.70
22416;DHT22;12204;50.600;4.608;2023-04-05T09:35:49;17.90;68.70
22416;DHT22;12204;50.600;4.608;2023-04-05T09:40:55;18.00;68.60
22416;DHT22;12204;50.600;4.608;2023-04-05T09:46:27;18.00;68.80
22416;DHT22;12204;50.600;4.608;2023-04-05T09:51:34;17.90;68.80
22416;DHT22;12204;50.600;4.608;2023-04-05T09:56:54;18.00;68.70
22416;DHT22;12204;50.600;4.608;2023-04-05T10:01:58;18.00;69.50
22416;DHT22;12204;50.600;4.608;2023-04-05T10:07:02;18.00;68.70
22416;DHT22;12204;50.600;4.608;2023-04-05T10:12:08;18.00;68.80
22416;DHT22;12204;50.600;4.608;2023-04-05T10:17:17;18.00;68.70
22416;DHT22;12204;50.600;4.608;2023-04-05T10:22:32;18.00;68.70
22416;DHT22;12204;50.600;4.608;2023-04-05T10:27:46;18.00;68.70
22416;DHT22;12204;50.600;4.608;2023-04-05T10:33:03;18.00;68.70
22416;DHT22;12204;50.600;4.608;2023-04-05T10:38:21;18.00;68.80
22416;DHT22;12204;50.600;4.608;2023-04-05T10:43:29;18.00;68.80
22416;DHT22;12204;50.600;4.608;2023-04-05T10:48:38;18.00;68.70
22416;DHT22;12204;50.600;4.608;2023-04-05T10:53:49;18.00;68.70
22416;DHT22;12204;50.600;4.608;2023-04-05T10:58:54;18.00;68.60
22416;DHT22;12204;50.600;4.608;2023-04-05T11:04:10;18.00;68.70
22416;DHT22;12204;50.600;4.608;2023-04-05T11:09:16;18.00;68.60
22416;DHT22;12204;50.600;4.608;2023-04-05T11:14:23;18.00;68.60
22416;DHT22;12204;50.600;4.608;2023-04-05T11:19:48;18.00;68.50
22416;DHT22;12204;50.600;4.608;2023-04-05T11:24:55;18.00;68.60
22416;DHT22;12204;50.600;4.608;2023-04-05T11:30:05;18.00;68.60
22416;DHT22;12204;50.600;4.608;2023-04-05T11:35:12;18.00;68.50
22416;DHT22;12204;50.600;4.608;2023-04-05T11:40:26;18.00;68.40
22416;DHT22;12204;50.600;4.608;2023-04-05T11:45:33;18.00;68.40
22416;DHT22;12204;50.600;4.608;2023-04-05T11:50:39;18.00;68.40
22416;DHT22;12204;50.600;4.608;2023-04-05T11:55:44;18.10;68.60
22416;DHT22;12204;50.600;4.608;2023-04-05T12:00:58;18.10;68.60
22416;DHT22;12204;50.600;4.608;2023-04-05T12:06:07;18.00;68.50
22416;DHT22;12204;50.600;4.608;2023-04-05T12:11:11;18.10;68.50
22416;DHT22;12204;50.600;4.608;2023-04-05T12:16:16;18.00;68.40
22416;DHT22;12204;50.600;4.608;2023-04-05T12:21:21;18.00;68.40
22416;DHT22;12204;50.600;4.608;2023-04-05T12:26:25;18.10;68.50
22416;DHT22;12204;50.600;4.608;2023-04-05T12:31:38;18.00;68.30
22416;DHT22;12204;50.600;4.608;2023-04-05T12:36:43;18.10;68.50
22416;DHT22;12204;50.600;4.608;2023-04-05T12:41:55;18.00;68.40
22416;DHT22;12204;50.600;4.608;2023-04-05T12:47:02;18.00;68.50
22416;DHT22;12204;50.600;4.608;2023-04-05T12:52:18;18.10;68.50
22416;DHT22;12204;50.600;4.608;2023-04-05T12:57:29;18.10;68.40
22416;DHT22;12204;50.600;4.608;2023-04-05T13:02:34;18.10;68.40
22416;DHT22;12204;50.600;4.608;2023-04-05T13:07:38;18.10;68.30
22416;DHT22;12204;50.600;4.608;2023-04-05T13:12:42;18.10;68.20
22416;DHT22;12204;50.600;4.608;2023-04-05T13:17:46;18.10;68.20
22416;DHT22;12204;50.600;4.608;2023-04-05T13:22:52;18.10;68.20
22416;DHT22;12204;50.600;4.608;2023-04-05T13:27:56;18.20;68.20
22416;DHT22;12204;50.600;4.608;2023-04-05T13:33:01;18.20;68.20
22416;DHT22;12204;50.600;4.608;2023-04-05T13:38:06;18.20;68.10
22416;DHT22;12204;50.600;4.608;2023-04-05T13:43:09;18.20;68.10
22416;DHT22;12204;50.600;4.608;2023-04-05T13:48:14;18.20;68.10
22416;DHT22;12204;50.600;4.608;2023-04-05T13:53:17;18.20;68.00
22416;DHT22;12204;50.600;4.608;2023-04-05T13:58:21;18.20;68.10
22416;DHT22;12204;50.600;4.608;2023-04-05T14:03:25;18.30;68.10
22416;DHT22;12204;50.600;4.608;2023-04-05T14:08:29;18.30;68.10
22416;DHT22;12204;50.600;4.608;2023-04-05T14:13:32;18.30;67.90
22416;DHT22;12204;50.600;4.608;2023-04-05T14:18:37;18.30;68.00
22416;DHT22;12204;50.600;4.608;2023-04-05T14:23:41;18.30;68.00
22416;DHT22;12204;50.600;4.608;2023-04-05T14:28:45;18.40;68.00
22416;DHT22;12204;50.600;4.608;2023-04-05T14:33:49;18.40;68.10
22416;DHT22;12204;50.600;4.608;2023-04-05T14:38:53;18.50;68.30
22416;DHT22;12204;50.600;4.608;2023-04-05T14:43:57;18.50;67.80
22416;DHT22;12204;50.600;4.608;2023-04-05T14:49:01;18.50;68.00
22416;DHT22;12204;50.600;4.608;2023-04-05T14:54:05;18.50;67.70
22416;DHT22;12204;50.600;4.608;2023-04-05T14:59:09;18.60;68.20
22416;DHT22;12204;50.600;4.608;2023-04-05T15:04:14;18.60;68.20
22416;DHT22;12204;50.600;4.608;2023-04-05T15:09:17;18.60;68.30
22416;DHT22;12204;50.600;4.608;2023-04-05T15:14:21;18.60;68.50
22416;DHT22;12204;50.600;4.608;2023-04-05T15:19:34;18.60;68.40
22416;DHT22;12204;50.600;4.608;2023-04-05T15:24:39;18.60;68.50
22416;DHT22;12204;50.600;4.608;2023-04-05T15:29:43;18.70;68.40
22416;DHT22;12204;50.600;4.608;2023-04-05T15:34:48;18.60;68.50
22416;DHT22;12204;50.600;4.608;2023-04-05T15:39:51;18.60;68.50
22416;DHT22;12204;50.600;4.608;2023-04-05T15:44:55;18.60;68.40
22416;DHT22;12204;50.600;4.608;2023-04-05T15:50:00;18.70;68.40
22416;DHT22;12204;50.600;4.608;2023-04-05T15:55:04;18.70;68.30
22416;DHT22;12204;50.600;4.608;2023-04-05T16:00:09;18.70;68.30
22416;DHT22;12204;50.600;4.608;2023-04-05T16:05:16;18.70;68.40
22416;DHT22;12204;50.600;4.608;2023-04-05T16:10:20;18.70;68.40
22416;DHT22;12204;50.600;4.608;2023-04-05T16:15:23;18.70;68.30
22416;DHT22;12204;50.600;4.608;2023-04-05T16:20:29;18.80;68.40
22416;DHT22;12204;50.600;4.608;2023-04-05T16:25:32;18.80;68.10
22416;DHT22;12204;50.600;4.608;2023-04-05T16:30:36;18.80;68.20
22416;DHT22;12204;50.600;4.608;2023-04-05T16:35:41;18.80;68.10
22416;DHT22;12204;50.600;4.608;2023-04-05T16:40:44;18.90;68.30
22416;DHT22;12204;50.600;4.608;2023-04-05T16:45:48;18.80;68.10
22416;DHT22;12204;50.600;4.608;2023-04-05T16:50:53;18.90;68.20
22416;DHT22;12204;50.600;4.608;2023-04-05T16:55:57;18.90;68.20
22416;DHT22;12204;50.600;4.608;2023-04-05T17:01:00;18.90;68.30
22416;DHT22;12204;50.600;4.608;2023-04-05T17:06:06;18.90;68.40
22416;DHT22;12204;50.600;4.608;2023-04-05T17:11:12;18.90;68.20
22416;DHT22;12204;50.600;4.608;2023-04-05T17:16:15;18.90;68.30
22416;DHT22;12204;50.600;4.608;2023-04-05T17:21:20;18.90;68.30
22416;DHT22;12204;50.600;4.608;2023-04-05T17:26:24;18.90;68.30
22416;DHT22;12204;50.600;4.608;2023-04-05T17:31:28;18.90;68.50
22416;DHT22;12204;50.600;4.608;2023-04-05T17:36:35;18.80;68.40
22416;DHT22;12204;50.600;4.608;2023-04-05T17:41:39;18.80;68.70
22416;DHT22;12204;50.600;4.608;2023-04-05T17:46:43;18.80;68.80
22416;DHT22;12204;50.600;4.608;2023-04-05T17:51:59;18.70;68.80
22416;DHT22;12204;50.600;4.608;2023-04-05T17:57:03;18.70;68.90
22416;DHT22;12204;50.600;4.608;2023-04-05T18:02:07;18.70;69.00
22416;DHT22;12204;50.600;4.608;2023-04-05T18:07:13;18.60;69.20
22416;DHT22;12204;50.600;4.608;2023-04-05T18:12:16;18.70;69.40
22416;DHT22;12204;50.600;4.608;2023-04-05T18:17:21;18.70;69.10
22416;DHT22;12204;50.600;4.608;2023-04-05T18:22:26;18.70;69.20
22416;DHT22;12204;50.600;4.608;2023-04-05T18:27:30;18.70;68.90
22416;DHT22;12204;50.600;4.608;2023-04-05T18:32:34;18.70;68.50
22416;DHT22;12204;50.600;4.608;2023-04-05T18:37:39;18.70;68.40
22416;DHT22;12204;50.600;4.608;2023-04-05T18:42:42;18.70;68.60
22416;DHT22;12204;50.600;4.608;2023-04-05T18:47:47;18.70;68.90
22416;DHT22;12204;50.600;4.608;2023-04-05T18:52:52;18.70;68.50
22416;DHT22;12204;50.600;4.608;2023-04-05T18:57:55;18.70;68.60
22416;DHT22;12204;50.600;4.608;2023-04-05T19:02:59;18.70;68.90
22416;DHT22;12204;50.600;4.608;2023-04-05T19:08:04;18.70;68.60
22416;DHT22;12204;50.600;4.608;2023-04-05T19:13:08;18.60;68.60
22416;DHT22;12204;50.600;4.608;2023-04-05T19:18:11;18.60;68.70
22416;DHT22;12204;50.600;4.608;2023-04-05T19:23:16;18.60;68.60
22416;DHT22;12204;50.600;4.608;2023-04-05T19:28:19;18.60;68.70
22416;DHT22;12204;50.600;4.608;2023-04-05T19:33:23;18.60;68.60
22416;DHT22;12204;50.600;4.608;2023-04-05T19:38:28;18.60;68.70
22416;DHT22;12204;50.600;4.608;2023-04-05T19:43:33;18.60;68.70
22416;DHT22;12204;50.600;4.608;2023-04-05T19:48:39;18.60;68.70
22416;DHT22;12204;50.600;4.608;2023-04-05T19:53:46;18.60;68.70
22416;DHT22;12204;50.600;4.608;2023-04-05T19:58:55;18.60;68.80
22416;DHT22;12204;50.600;4.608;2023-04-05T20:04:06;18.60;68.80
22416;DHT22;12204;50.600;4.608;2023-04-05T20:09:15;18.60;68.70
22416;DHT22;12204;50.600;4.608;2023-04-05T20:14:25;18.50;68.70
22416;DHT22;12204;50.600;4.608;2023-04-05T20:19:31;18.50;68.70
22416;DHT22;12204;50.600;4.608;2023-04-05T20:24:37;18.50;68.70
22416;DHT22;12204;50.600;4.608;2023-04-05T20:29:41;18.50;68.70
22416;DHT22;12204;50.600;4.608;2023-04-05T20:34:44;18.50;69.50
22416;DHT22;12204;50.600;4.608;2023-04-05T20:39:49;18.50;68.70
22416;DHT22;12204;50.600;4.608;2023-04-05T20:44:53;18.50;68.80
22416;DHT22;12204;50.600;4.608;2023-04-05T20:49:58;18.50;68.80
22416;DHT22;12204;50.600;4.608;2023-04-05T20:55:03;18.50;68.70
22416;DHT22;12204;50.600;4.608;2023-04-05T21:00:09;18.50;68.80
22416;DHT22;12204;50.600;4.608;2023-04-05T21:05:14;18.50;68.80
22416;DHT22;12204;50.600;4.608;2023-04-05T21:10:19;18.50;68.80
22416;DHT22;12204;50.600;4.608;2023-04-05T21:15:22;18.50;68.80
22416;DHT22;12204;50.600;4.608;2023-04-05T21:20:29;18.50;68.90
22416;DHT22;12204;50.600;4.608;2023-04-05T21:25:34;18.50;68.90
22416;DHT22;12204;50.600;4.608;2023-04-05T21:30:38;18.50;68.90
22416;DHT22;12204;50.600;4.608;2023-04-05T21:35:42;18.50;68.90
22416;DHT22;12204;50.600;4.608;2023-04-05T21:40:47;18.50;68.90
22416;DHT22;12204;50.600;4.608;2023-04-05T21:45:51;18.40;68.90
22416;DHT22;12204;50.600;4.608;2023-04-05T21:50:55;18.50;68.90
22416;DHT22;12204;50.600;4.608;2023-04-05T21:56:00;18.50;69.00
22416;DHT22;12204;50.600;4.608;2023-04-05T22:01:03;18.50;69.00
22416;DHT22;12204;50.600;4.608;2023-04-05T22:06:07;18.50;69.00
22416;DHT22;12204;50.600;4.608;2023-04-05T22:11:12;18.40;68.90
22416;DHT22;12204;50.600;4.608;2023-04-05T22:16:16;18.40;69.00
22416;DHT22;12204;50.600;4.608;2023-04-05T22:21:19;18.40;68.90
22416;DHT22;12204;50.600;4.608;2023-04-05T22:26:24;18.50;69.00
22416;DHT22;12204;50.600;4.608;2023-04-05T22:31:29;18.50;69.00
22416;DHT22;12204;50.600;4.608;2023-04-05T22:36:33;18.40;69.00
22416;DHT22;12204;50.600;4.608;2023-04-05T22:41:38;18.40;69.00
22416;DHT22;12204;50.600;4.608;2023-04-05T22:46:42;18.40;69.00
22416;DHT22;12204;50.600;4.608;2023-04-05T22:51:45;18.40;69.00
22416;DHT22;12204;50.600;4.608;2023-04-05T22:56:50;18.40;69.10
22416;DHT22;12204;50.600;4.608;2023-04-05T23:01:54;18.40;69.10
22416;DHT22;12204;50.600;4.608;2023-04-05T23:06:58;18.50;69.10
22416;DHT22;12204;50.600;4.608;2023-04-05T23:12:03;18.40;69.10
22416;DHT22;12204;50.600;4.608;2023-04-05T23:17:08;18.40;69.10
22416;DHT22;12204;50.600;4.608;2023-04-05T23:22:12;18.40;69.10
22416;DHT22;12204;50.600;4.608;2023-04-05T23:27:17;18.40;69.10
22416;DHT22;12204;50.600;4.608;2023-04-05T23:32:21;18.40;69.10
22416;DHT22;12204;50.600;4.608;2023-04-05T23:37:24;18.40;69.10
22416;DHT22;12204;50.600;4.608;2023-04-05T23:42:29;18.40;69.10
22416;DHT22;12204;50.600;4.608;2023-04-05T23:47:33;18.40;69.10
22416;DHT22;12204;50.600;4.608;2023-04-05T23:52:36;18.40;69.10
22416;DHT22;12204;50.600;4.608;2023-04-05T23:57:41;18.40;69.10
